Time;durP1;ratioP1;P1;durP2;ratioP2;P2;SDS_P1;SDS_P2;PMS_P1;PMS_P2;Temp;Humidity;BMP_temperature;BMP_pressure;BME280_temperature;BME280_humidity;BME280_pressure;Samples;Min_cycle;Max_cycle;Signal;HPM_P1;HPM_P2
2022/06/20 00:01:19;;;;;;;5.72;1.80;;;14.70;96.80;;;;;;5047926;28;20045;-75
2022/06/20 00:03:47;;;;;;;7.47;1.70;;;14.80;96.90;;;;;;5035212;28;20413;-75
2022/06/20 00:06:16;;;;;;;5.25;1.75;;;14.70;97.00;;;;;;5048425;28;20436;-75
2022/06/20 00:08:41;;;;;;;5.13;1.58;;;14.70;97.10;;;;;;5044211;28;20045;-75
2022/06/20 00:11:16;;;;;;;6.70;1.80;;;14.70;97.10;;;;;;5033117;28;20379;-75
2022/06/20 00:13:45;;;;;;;8.65;1.95;;;14.70;97.20;;;;;;5045338;28;20128;-75
2022/06/20 00:16:14;;;;;;;7.43;1.90;;;14.70;97.20;;;;;;5050806;28;20049;-75
2022/06/20 00:18:40;;;;;;;7.53;1.92;;;14.60;97.20;;;;;;5025107;28;20041;-75
2022/06/20 00:21:06;;;;;;;8.73;2.10;;;14.60;97.20;;;;;;5044609;28;20056;-75
2022/06/20 00:23:32;;;;;;;6.05;1.50;;;14.70;97.30;;;;;;5043261;28;20037;-75
2022/06/20 00:25:57;;;;;;;5.22;1.60;;;14.50;97.40;;;;;;5045930;28;20508;-75
2022/06/20 00:28:23;;;;;;;8.50;1.92;;;14.50;97.50;;;;;;5050754;28;20033;-75
2022/06/20 00:30:49;;;;;;;9.68;2.33;;;14.60;97.60;;;;;;5045133;28;20029;-75
2022/06/20 00:33:16;;;;;;;10.80;1.83;;;14.40;97.70;;;;;;5047278;28;20079;-76
2022/06/20 00:35:42;;;;;;;6.53;2.00;;;14.60;97.90;;;;;;5024487;28;20081;-75
2022/06/20 00:38:16;;;;;;;5.25;1.60;;;14.50;97.90;;;;;;5045263;28;20095;-75
2022/06/20 00:40:57;;;;;;;7.40;1.85;;;14.40;98.00;;;;;;5042076;28;20037;-75
2022/06/20 00:43:33;;;;;;;6.00;1.92;;;14.40;98.20;;;;;;5048205;28;20079;-75
2022/06/20 00:46:06;;;;;;;5.47;1.60;;;14.40;98.30;;;;;;5050062;28;20490;-75
2022/06/20 00:48:50;;;;;;;6.32;1.90;;;14.40;98.40;;;;;;5048085;28;20037;-75
2022/06/20 00:51:30;;;;;;;6.65;1.83;;;14.30;98.60;;;;;;5040358;28;20056;-76
2022/06/20 00:54:34;;;;;;;7.40;1.80;;;14.30;98.60;;;;;;5035091;28;20084;-75
2022/06/20 00:57:11;;;;;;;4.80;1.50;;;14.30;98.80;;;;;;5051496;28;20099;-76
2022/06/20 00:59:43;;;;;;;6.43;1.77;;;14.40;98.90;;;;;;5053622;28;20047;-76
2022/06/20 01:02:12;;;;;;;4.97;1.73;;;14.30;98.90;;;;;;5053318;28;20047;-75
2022/06/20 01:04:47;;;;;;;5.80;2.00;;;14.20;99.00;;;;;;5042313;28;20041;-76
2022/06/20 01:07:19;;;;;;;5.05;1.75;;;14.40;99.10;;;;;;5059883;28;20037;-76
2022/06/20 01:09:50;;;;;;;8.10;1.80;;;14.20;99.10;;;;;;5060282;28;20045;-76
2022/06/20 01:12:20;;;;;;;6.45;1.90;;;14.20;99.20;;;;;;5060771;28;20589;-76
2022/06/20 01:14:45;;;;;;;7.18;2.00;;;14.20;99.20;;;;;;5067575;28;20044;-76
2022/06/20 01:17:25;;;;;;;6.03;2.00;;;14.20;99.30;;;;;;5063433;28;20033;-76
2022/06/20 01:20:02;;;;;;;7.32;2.25;;;14.20;99.40;;;;;;5046110;28;20094;-76
2022/06/20 01:22:43;;;;;;;5.65;1.80;;;14.20;99.40;;;;;;5062332;28;20062;-76
2022/06/20 01:25:19;;;;;;;6.03;1.77;;;14.10;99.40;;;;;;5067386;28;20489;-76
2022/06/20 01:27:47;;;;;;;5.85;2.03;;;14.10;99.60;;;;;;5053979;28;20099;-76
2022/06/20 01:30:13;;;;;;;6.82;2.10;;;14.10;99.70;;;;;;5067148;28;20424;-76
2022/06/20 01:32:40;;;;;;;7.28;2.17;;;14.30;99.80;;;;;;5045782;28;20103;-76
2022/06/20 01:35:11;;;;;;;6.88;2.25;;;14.10;99.80;;;;;;5038644;28;20129;-76
2022/06/20 01:37:41;;;;;;;7.78;2.42;;;14.10;99.90;;;;;;5061740;28;20069;-76
2022/06/20 01:40:14;;;;;;;8.23;2.30;;;14.10;99.90;;;;;;5061952;28;20059;-76
2022/06/20 01:42:42;;;;;;;7.10;2.15;;;14.10;99.90;;;;;;5055757;28;20484;-76
2022/06/20 01:48:11;;;;;;;6.38;2.35;;;14.20;99.90;;;;;;5064272;28;20516;-75
2022/06/20 01:50:37;;;;;;;6.03;2.13;;;14.10;99.90;;;;;;5067744;28;20497;-76
2022/06/20 01:53:04;;;;;;;7.25;1.95;;;14.30;99.90;;;;;;5065806;28;20453;-76
2022/06/20 01:55:33;;;;;;;6.32;2.28;;;14.20;99.90;;;;;;5062180;28;20090;-76
2022/06/20 01:58:10;;;;;;;5.88;1.90;;;14.50;99.90;;;;;;5066146;28;20044;-76
2022/06/20 02:00:36;;;;;;;8.55;2.35;;;14.10;99.90;;;;;;5057883;28;20063;-76
2022/06/20 02:03:12;;;;;;;5.30;2.30;;;14.20;99.90;;;;;;5050571;28;20036;-75
2022/06/20 02:05:44;;;;;;;10.95;2.30;;;14.10;99.90;;;;;;5063172;28;20032;-76
2022/06/20 02:08:10;;;;;;;7.70;2.30;;;14.40;99.90;;;;;;5065791;28;20117;-76
2022/06/20 02:10:46;;;;;;;5.38;2.03;;;14.20;99.90;;;;;;5057962;28;20461;-76
2022/06/20 02:13:13;;;;;;;6.53;2.40;;;14.10;99.90;;;;;;5046586;28;20048;-75
2022/06/20 02:15:40;;;;;;;10.20;2.42;;;14.00;99.90;;;;;;5056146;28;20045;-76
2022/06/20 02:18:08;;;;;;;7.63;2.30;;;14.20;99.90;;;;;;5058023;28;20413;-76
2022/06/20 02:20:45;;;;;;;7.22;2.30;;;14.00;99.90;;;;;;5049032;28;20045;-76
2022/06/20 02:23:24;;;;;;;7.07;2.35;;;14.10;99.90;;;;;;5040782;28;20036;-76
2022/06/20 02:25:51;;;;;;;6.00;2.50;;;14.00;99.90;;;;;;5054997;28;20489;-75
2022/06/20 02:28:21;;;;;;;5.10;2.28;;;13.90;99.90;;;;;;5060170;28;20531;-75
2022/06/20 02:30:47;;;;;;;9.63;2.33;;;14.30;99.90;;;;;;5054388;28;20041;-75
2022/06/20 02:33:17;;;;;;;8.85;2.53;;;13.90;99.90;;;;;;5045898;28;20508;-76
2022/06/20 02:35:44;;;;;;;6.65;2.42;;;14.30;99.90;;;;;;5048697;28;20045;-76
2022/06/20 02:38:10;;;;;;;5.20;2.10;;;14.20;99.90;;;;;;5060285;28;20099;-75
2022/06/20 02:40:42;;;;;;;9.57;2.35;;;13.90;99.90;;;;;;5055801;28;20047;-75
2022/06/20 02:43:22;;;;;;;6.32;2.50;;;13.80;99.90;;;;;;5062897;28;20044;-75
2022/06/20 02:45:49;;;;;;;7.88;2.47;;;13.70;99.90;;;;;;5040737;28;20075;-75
2022/06/20 02:48:16;;;;;;;6.30;2.22;;;13.70;99.90;;;;;;5065630;28;20104;-76
2022/06/20 02:50:47;;;;;;;6.78;2.10;;;13.70;99.90;;;;;;5074280;28;20055;-76
2022/06/20 02:53:23;;;;;;;11.63;2.60;;;13.60;99.90;;;;;;5061258;28;20119;-76
2022/06/20 02:55:51;;;;;;;4.97;2.20;;;13.60;99.90;;;;;;5066590;28;20569;-76
2022/06/20 02:58:26;;;;;;;5.88;2.20;;;13.50;99.90;;;;;;5064610;28;20162;-76
2022/06/20 03:01:16;;;;;;;7.40;2.72;;;13.40;99.90;;;;;;5067082;28;20052;-76
2022/06/20 03:03:48;;;;;;;7.35;2.70;;;13.40;99.90;;;;;;5036742;28;20484;-76
2022/06/20 03:06:26;;;;;;;9.75;2.50;;;13.30;99.90;;;;;;5066597;28;20037;-76
2022/06/20 03:08:54;;;;;;;7.25;2.35;;;13.40;99.90;;;;;;5039102;28;20136;-76
2022/06/20 03:11:21;;;;;;;9.07;2.95;;;13.20;99.90;;;;;;5069124;28;20418;-76
2022/06/20 03:13:51;;;;;;;7.45;2.88;;;13.10;99.90;;;;;;5040338;28;20049;-76
2022/06/20 03:16:17;;;;;;;6.00;2.60;;;13.30;99.90;;;;;;5053711;28;20396;-76
2022/06/20 03:18:45;;;;;;;8.63;2.75;;;13.10;99.90;;;;;;5058206;28;20029;-76
2022/06/20 03:21:12;;;;;;;7.15;2.55;;;13.00;99.90;;;;;;5052556;28;20107;-76
2022/06/20 03:23:38;;;;;;;6.20;2.53;;;13.00;99.90;;;;;;5066251;28;20047;-76
2022/06/20 03:26:09;;;;;;;5.03;2.30;;;12.90;99.90;;;;;;5054477;28;20037;-76
2022/06/20 03:28:35;;;;;;;5.37;2.40;;;13.10;99.90;;;;;;5067771;28;20051;-76
2022/06/20 03:31:02;;;;;;;5.13;2.65;;;13.00;99.90;;;;;;5057801;28;20383;-76
2022/06/20 03:33:32;;;;;;;7.40;2.70;;;12.90;99.90;;;;;;5060735;28;20045;-76
2022/06/20 03:36:10;;;;;;;8.00;2.88;;;12.90;99.90;;;;;;5060390;28;20041;-76
2022/06/20 03:38:37;;;;;;;6.75;2.90;;;12.80;99.90;;;;;;5058498;28;20044;-76
2022/06/20 03:41:05;;;;;;;7.03;3.13;;;12.80;99.90;;;;;;5065439;28;20043;-76
2022/06/20 03:43:32;;;;;;;11.30;2.80;;;12.80;99.90;;;;;;5039825;28;20033;-76
2022/06/20 03:46:05;;;;;;;8.80;3.10;;;12.70;99.90;;;;;;5053292;28;20047;-76
2022/06/20 03:48:42;;;;;;;7.53;2.70;;;12.80;99.90;;;;;;5058322;28;20041;-76
2022/06/20 03:51:11;;;;;;;6.57;2.85;;;12.70;99.90;;;;;;5060571;28;20045;-75
2022/06/20 03:54:03;;;;;;;9.00;2.80;;;12.70;99.90;;;;;;5059860;28;20040;-76
2022/06/20 03:56:56;;;;;;;6.88;2.60;;;12.70;99.90;;;;;;5036260;28;20320;-76
2022/06/20 03:59:52;;;;;;;7.70;2.67;;;12.70;99.90;;;;;;5061689;28;20036;-76
2022/06/20 04:02:29;;;;;;;4.63;2.65;;;12.70;99.90;;;;;;5027953;28;20079;-76
2022/06/20 04:05:20;;;;;;;6.97;2.35;;;12.60;99.90;;;;;;5051864;28;20050;-76
2022/06/20 04:07:57;;;;;;;4.65;2.15;;;12.50;99.90;;;;;;5063806;28;20049;-76
2022/06/20 04:11:01;;;;;;;4.75;2.13;;;12.70;99.90;;;;;;5042340;28;20033;-76
2022/06/20 04:13:37;;;;;;;5.05;2.10;;;12.50;99.90;;;;;;5063395;28;20037;-76
2022/06/20 04:16:18;;;;;;;3.13;2.00;;;12.50;99.90;;;;;;5062082;28;20397;-76
2022/06/20 04:19:05;;;;;;;3.30;2.20;;;12.40;99.90;;;;;;5066379;28;20048;-76
2022/06/20 04:21:41;;;;;;;5.18;2.20;;;12.40;99.90;;;;;;5059160;28;20504;-75
2022/06/20 04:24:18;;;;;;;5.97;2.60;;;12.40;99.90;;;;;;5066611;28;20044;-76
2022/06/20 04:26:47;;;;;;;3.92;2.30;;;12.50;99.90;;;;;;5065676;28;20481;-76
2022/06/20 04:29:16;;;;;;;4.75;2.58;;;12.40;99.90;;;;;;5067724;28;20037;-75
2022/06/20 04:31:50;;;;;;;6.18;2.78;;;12.30;99.90;;;;;;5060152;28;20051;-75
2022/06/20 04:34:20;;;;;;;5.45;2.55;;;12.40;99.90;;;;;;5060809;28;20449;-75
2022/06/20 04:36:57;;;;;;;6.40;2.70;;;12.40;99.90;;;;;;5068399;28;20045;-75
2022/06/20 04:39:40;;;;;;;6.07;2.88;;;12.40;99.90;;;;;;5059141;28;20037;-75
2022/06/20 04:42:33;;;;;;;4.78;2.58;;;12.50;99.90;;;;;;5048501;28;20086;-75
2022/06/20 04:45:09;;;;;;;6.22;2.63;;;12.50;99.90;;;;;;5060748;28;20037;-75
2022/06/20 04:47:46;;;;;;;9.57;3.00;;;12.50;99.90;;;;;;5047063;28;20043;-75
2022/06/20 04:50:19;;;;;;;5.53;2.38;;;12.60;99.90;;;;;;5049340;28;20033;-75
2022/06/20 04:52:45;;;;;;;8.05;2.72;;;12.60;99.90;;;;;;5064481;28;20059;-75
2022/06/20 04:55:18;;;;;;;10.65;2.70;;;12.70;99.90;;;;;;5065070;28;20048;-75
2022/06/20 04:57:43;;;;;;;;;;;12.70;99.90;;;;;;5059006;28;20105;-75
2022/06/20 05:00:24;;;;;;;7.40;2.40;;;12.80;99.90;;;;;;5065400;28;20151;-75
2022/06/20 05:02:53;;;;;;;7.68;2.40;;;12.80;99.90;;;;;;5047327;28;20059;-75
2022/06/20 05:05:23;;;;;;;8.18;2.65;;;12.90;99.90;;;;;;5058661;28;20067;-75
2022/06/20 05:07:50;;;;;;;8.05;2.40;;;12.80;99.90;;;;;;5068776;28;20062;-75
2022/06/20 05:10:20;;;;;;;6.18;2.47;;;12.90;99.90;;;;;;5063237;28;20400;-75
2022/06/20 05:12:56;;;;;;;7.25;2.58;;;12.90;99.90;;;;;;5064710;28;20500;-75
2022/06/20 05:15:49;;;;;;;6.70;2.58;;;13.00;99.90;;;;;;5041524;28;20406;-75
2022/06/20 05:18:27;;;;;;;12.63;2.78;;;12.90;99.90;;;;;;5054938;28;20052;-75
2022/06/20 05:20:57;;;;;;;9.32;3.10;;;13.00;99.90;;;;;;5040059;28;20092;-75
2022/06/20 05:23:54;;;;;;;6.38;2.63;;;13.00;99.90;;;;;;5061516;28;20544;-75
2022/06/20 05:26:24;;;;;;;5.93;2.78;;;13.10;99.90;;;;;;5058640;28;20040;-75
2022/06/20 05:28:53;;;;;;;10.48;2.72;;;13.10;99.90;;;;;;5068043;28;20059;-75
2022/06/20 05:31:44;;;;;;;9.20;2.50;;;13.20;99.90;;;;;;5065043;28;20067;-75
2022/06/20 05:34:16;;;;;;;9.25;2.65;;;13.20;99.90;;;;;;5034865;28;20055;-75
2022/06/20 05:36:55;;;;;;;8.55;2.67;;;13.20;99.90;;;;;;5063847;28;20119;-75
2022/06/20 05:39:29;;;;;;;6.50;2.55;;;13.40;99.90;;;;;;5055281;28;20566;-75
2022/06/20 05:41:56;;;;;;;8.90;3.17;;;13.20;99.90;;;;;;5064269;28;20507;-76
2022/06/20 05:44:22;;;;;;;10.77;3.00;;;13.30;99.90;;;;;;5059353;28;20029;-74
2022/06/20 05:47:04;;;;;;;9.38;3.03;;;13.30;99.90;;;;;;5060401;28;20120;-75
2022/06/20 05:49:34;;;;;;;11.60;2.95;;;13.40;99.90;;;;;;5062299;28;20041;-75
2022/06/20 05:52:01;;;;;;;11.93;3.58;;;13.40;99.90;;;;;;5057593;28;20060;-75
2022/06/20 05:54:36;;;;;;;11.05;2.85;;;13.40;99.90;;;;;;5067671;28;20047;-75
2022/06/20 05:57:14;;;;;;;8.40;3.00;;;13.60;99.90;;;;;;5030354;28;20073;-75
2022/06/20 05:59:41;;;;;;;11.63;3.03;;;13.50;99.90;;;;;;5061675;28;20044;-75
2022/06/20 06:02:32;;;;;;;14.32;3.40;;;13.50;99.90;;;;;;5062641;28;20402;-75
2022/06/20 06:05:30;;;;;;;13.50;3.40;;;13.60;99.90;;;;;;5060068;28;20119;-75
2022/06/20 06:08:17;;;;;;;9.95;4.38;;;13.70;99.90;;;;;;5067621;28;20389;-75
2022/06/20 06:10:48;;;;;;;10.27;3.75;;;13.70;99.90;;;;;;5044550;28;20094;-75
2022/06/20 06:13:28;;;;;;;10.75;3.47;;;13.70;99.90;;;;;;5060591;28;20067;-75
2022/06/20 06:19:25;;;;;;;11.27;3.40;;;13.90;99.90;;;;;;5057308;28;20611;-75
2022/06/20 06:21:53;;;;;;;12.60;3.40;;;13.80;99.90;;;;;;5010531;28;20064;-75
2022/06/20 06:24:23;;;;;;;9.73;3.90;;;13.90;99.90;;;;;;5064563;28;20063;-75
2022/06/20 06:26:51;;;;;;;10.18;3.30;;;14.00;99.90;;;;;;5033108;28;20053;-75
2022/06/20 06:29:44;;;;;;;11.63;3.97;;;14.10;99.90;;;;;;5042361;28;20040;-75
2022/06/20 06:32:16;;;;;;;10.88;4.45;;;14.00;99.90;;;;;;5035138;28;20038;-75
2022/06/20 06:35:04;;;;;;;11.00;3.53;;;14.50;99.90;;;;;;5052892;28;20082;-75
2022/06/20 06:38:08;;;;;;;12.27;3.90;;;14.10;99.90;;;;;;5041799;28;20041;-75
2022/06/20 06:40:47;;;;;;;11.00;3.80;;;14.20;99.90;;;;;;4960811;28;20050;-75
2022/06/20 06:43:40;;;;;;;12.85;3.97;;;14.20;99.90;;;;;;4950413;28;20573;-75
2022/06/20 06:46:06;;;;;;;;;;;14.60;99.90;;;;;;5035536;28;20053;-75
2022/06/20 06:49:04;;;;;;;9.80;3.92;;;14.40;99.90;;;;;;5058578;28;19923;-75
2022/06/20 06:51:52;;;;;;;12.02;3.45;;;14.50;99.90;;;;;;5032595;28;20064;-76
2022/06/20 06:54:40;;;;;;;13.32;4.53;;;14.60;99.90;;;;;;5046226;28;20068;-76
2022/06/20 06:57:13;;;;;;;11.30;3.92;;;14.80;99.90;;;;;;5057338;28;20519;-76
2022/06/20 07:00:05;;;;;;;15.15;4.13;;;14.90;99.90;;;;;;5058742;28;20132;-76
2022/06/20 07:02:56;;;;;;;14.40;3.80;;;15.00;99.90;;;;;;5054143;28;20048;-76
2022/06/20 07:05:39;;;;;;;14.30;3.78;;;15.00;99.90;;;;;;5036254;28;20037;-76
2022/06/20 07:08:13;;;;;;;12.13;3.72;;;15.00;99.90;;;;;;5048451;28;20040;-76
2022/06/20 07:11:01;;;;;;;11.15;3.58;;;15.10;99.90;;;;;;5054523;28;20119;-76
2022/06/20 07:13:38;;;;;;;11.50;3.72;;;15.20;99.90;;;;;;5051299;28;20032;-76
2022/06/20 07:16:13;;;;;;;11.23;3.92;;;15.50;99.90;;;;;;5054715;28;20045;-76
2022/06/20 07:18:43;;;;;;;11.00;3.42;;;15.40;99.90;;;;;;5060319;28;20040;-76
2022/06/20 07:21:18;;;;;;;9.00;3.72;;;15.50;99.90;;;;;;5051753;28;20041;-76
2022/06/20 07:23:48;;;;;;;11.95;3.60;;;15.60;99.90;;;;;;5055119;28;20052;-76
2022/06/20 07:26:17;;;;;;;9.60;3.67;;;15.60;99.90;;;;;;5054654;28;20147;-76
2022/06/20 07:28:49;;;;;;;10.73;4.07;;;15.60;99.90;;;;;;5058329;28;20571;-76
2022/06/20 07:31:30;;;;;;;11.45;3.80;;;15.60;99.90;;;;;;5058088;28;20041;-76
2022/06/20 07:34:05;;;;;;;10.68;4.00;;;15.60;99.90;;;;;;5047716;28;20048;-76
2022/06/20 07:36:43;;;;;;;10.00;3.45;;;15.50;99.90;;;;;;5058813;28;20037;-76
2022/06/20 07:39:22;;;;;;;11.10;3.75;;;15.50;99.90;;;;;;5052236;28;20118;-76
2022/06/20 07:41:54;;;;;;;9.02;3.50;;;15.60;99.90;;;;;;5056415;28;20048;-76
2022/06/20 07:44:25;;;;;;;;;;;15.60;99.90;;;;;;5047895;28;20115;-76
2022/06/20 07:47:08;;;;;;;12.45;3.47;;;15.60;99.90;;;;;;5050080;28;20066;-76
2022/06/20 07:49:41;;;;;;;8.30;3.17;;;15.70;99.90;;;;;;5044453;28;20039;-76
2022/06/20 07:52:12;;;;;;;9.93;3.20;;;15.80;99.90;;;;;;5055461;28;20499;-76
2022/06/20 07:54:49;;;;;;;11.23;3.40;;;15.90;99.90;;;;;;5053226;28;20133;-77
2022/06/20 07:57:19;;;;;;;7.80;3.08;;;16.00;99.90;;;;;;5039435;28;20565;-77
2022/06/20 07:59:54;;;;;;;11.85;3.50;;;16.20;99.90;;;;;;5050951;28;20163;-77
2022/06/20 08:02:40;;;;;;;7.90;3.03;;;16.10;99.90;;;;;;5033674;28;20521;-76
2022/06/20 08:05:06;;;;;;;10.52;3.50;;;16.10;99.50;;;;;;5055612;28;20037;-77
2022/06/20 08:07:40;;;;;;;8.63;2.92;;;16.10;99.00;;;;;;5046136;28;20119;-77
2022/06/20 08:10:44;;;;;;;5.97;2.67;;;16.10;99.00;;;;;;5062191;28;20037;-77
2022/06/20 08:13:15;;;;;;;8.32;3.20;;;16.10;98.80;;;;;;5047648;28;20045;-77
2022/06/20 08:15:57;;;;;;;11.65;3.28;;;16.20;98.60;;;;;;5044629;28;20069;-77
2022/06/20 08:18:24;;;;;;;12.93;3.10;;;16.30;98.30;;;;;;5036110;28;20037;-76
2022/06/20 08:20:58;;;;;;;10.05;2.95;;;16.40;98.50;;;;;;5055237;28;20120;-77
2022/06/20 08:23:39;;;;;;;9.93;3.17;;;16.70;98.20;;;;;;5054116;28;20453;-76
2022/06/20 08:26:09;;;;;;;10.93;3.00;;;16.90;97.70;;;;;;5055833;28;20136;-76
2022/06/20 08:28:56;;;;;;;11.25;2.95;;;17.30;98.10;;;;;;5043584;28;20082;-76
2022/06/20 08:31:33;;;;;;;7.60;2.78;;;17.60;97.20;;;;;;5048622;28;20048;-77
2022/06/20 08:34:11;;;;;;;9.30;2.78;;;17.70;96.30;;;;;;5047950;28;20079;-77
2022/06/20 08:36:41;;;;;;;9.75;2.97;;;17.50;95.90;;;;;;5032483;28;20107;-77
2022/06/20 08:39:17;;;;;;;9.10;2.53;;;17.60;95.70;;;;;;5045604;28;20037;-75
2022/06/20 08:42:05;;;;;;;8.02;2.60;;;17.40;95.30;;;;;;5047316;28;20095;-76
2022/06/20 08:44:53;;;;;;;6.93;2.92;;;17.70;94.40;;;;;;5057633;28;20515;-76
2022/06/20 08:48:00;;;;;;;7.25;2.53;;;18.20;94.80;;;;;;5062395;28;20048;-76
2022/06/20 08:50:54;;;;;;;8.23;2.75;;;18.70;93.60;;;;;;5038951;28;20135;-76
2022/06/20 08:53:57;;;;;;;8.15;2.90;;;18.70;92.90;;;;;;5055900;28;20051;-76
2022/06/20 08:57:13;;;;;;;7.20;2.40;;;18.60;92.80;;;;;;5056596;28;20045;-76
2022/06/20 08:59:50;;;;;;;8.10;2.50;;;18.40;92.30;;;;;;4998566;28;20257;-76
2022/06/20 09:02:43;;;;;;;5.88;2.30;;;18.40;92.70;;;;;;5063926;28;20056;-76
2022/06/20 09:05:32;;;;;;;7.20;2.30;;;18.90;92.30;;;;;;5035951;28;20127;-76
2022/06/20 09:08:03;;;;;;;6.95;2.05;;;19.30;91.50;;;;;;5066151;28;20040;-76
2022/06/20 09:10:45;;;;;;;4.68;2.08;;;19.50;92.60;;;;;;5032605;28;20361;-77
2022/06/20 09:13:23;;;;;;;6.63;2.28;;;19.80;91.80;;;;;;5038628;28;20501;-76
2022/06/20 09:16:30;;;;;;;6.28;1.90;;;20.00;91.20;;;;;;5041166;28;20040;-76
2022/06/20 09:19:15;;;;;;;5.90;1.80;;;20.10;86.30;;;;;;5018123;28;20076;-77
2022/06/20 09:22:00;;;;;;;5.57;1.98;;;20.20;86.30;;;;;;5035733;28;20521;-76
2022/06/20 09:25:13;;;;;;;6.28;2.03;;;20.60;84.60;;;;;;5063416;28;20036;-76
2022/06/20 09:27:55;;;;;;;5.72;2.22;;;21.00;86.70;;;;;;5001827;28;20040;-77
2022/06/20 09:30:37;;;;;;;6.13;1.90;;;21.00;83.80;;;;;;5051844;28;20507;-76
2022/06/20 09:33:38;;;;;;;3.67;1.60;;;20.70;81.20;;;;;;5035822;28;20048;-76
2022/06/20 09:36:04;;;;;;;7.35;1.90;;;20.40;80.40;;;;;;5057175;28;20046;-76
2022/06/20 09:38:39;;;;;;;4.35;1.58;;;20.10;83.80;;;;;;5044736;28;20053;-75
2022/06/20 09:41:13;;;;;;;4.15;1.70;;;20.00;82.50;;;;;;5055081;28;20115;-75
2022/06/20 09:44:08;;;;;;;4.63;1.67;;;20.00;83.40;;;;;;5043222;28;20048;-75
2022/06/20 09:46:44;;;;;;;4.32;1.83;;;19.90;82.50;;;;;;5052217;28;20045;-76
2022/06/20 09:49:16;;;;;;;5.22;1.85;;;20.10;83.90;;;;;;5050735;28;20528;-76
2022/06/20 09:52:11;;;;;;;8.75;1.90;;;20.40;82.90;;;;;;5057613;28;20110;-76
2022/06/20 09:55:00;;;;;;;3.75;2.08;;;20.80;82.50;;;;;;5047148;28;20087;-76
2022/06/20 09:57:36;;;;;;;5.47;1.90;;;21.50;81.60;;;;;;5037301;28;20051;-76
2022/06/20 10:00:15;;;;;;;5.85;2.13;;;21.60;80.00;;;;;;5041786;28;20052;-76
2022/06/20 10:03:08;;;;;;;4.45;1.60;;;21.80;79.60;;;;;;5050585;28;20095;-76
2022/06/20 10:06:01;;;;;;;5.13;1.90;;;21.60;76.80;;;;;;5044027;28;20048;-76
2022/06/20 10:08:38;;;;;;;5.50;1.80;;;21.30;77.10;;;;;;5052477;28;20069;-76
2022/06/20 10:11:39;;;;;;;9.10;2.40;;;21.30;78.10;;;;;;5064931;28;20087;-77
2022/06/20 10:14:42;;;;;;;4.85;1.70;;;21.40;77.30;;;;;;5034436;28;20432;-77
2022/06/20 10:17:16;;;;;;;6.95;1.92;;;21.60;76.70;;;;;;5035581;28;20087;-76
2022/06/20 10:20:17;;;;;;;4.68;1.98;;;21.60;77.70;;;;;;5053274;28;20044;-77
2022/06/20 10:23:08;;;;;;;6.45;1.90;;;21.60;74.00;;;;;;5047546;28;20086;-77
2022/06/20 10:25:48;;;;;;;5.70;2.20;;;21.40;75.60;;;;;;5048238;28;20044;-77
2022/06/20 10:28:18;;;;;;;6.45;1.83;;;21.30;76.80;;;;;;5044433;28;20040;-77
2022/06/20 10:31:16;;;;;;;8.15;2.00;;;21.40;77.50;;;;;;5051716;28;20044;-78
2022/06/20 10:33:44;;;;;;;5.72;2.08;;;21.90;76.60;;;;;;5050440;28;20086;-77
2022/06/20 10:36:23;;;;;;;7.72;2.20;;;22.00;74.90;;;;;;5045195;28;20041;-77
2022/06/20 10:39:01;;;;;;;3.80;1.83;;;21.90;73.60;;;;;;5045747;28;20075;-77
2022/06/20 10:41:53;;;;;;;5.00;2.05;;;21.80;74.00;;;;;;5052286;28;20052;-77
2022/06/20 10:44:52;;;;;;;3.47;1.70;;;22.00;74.70;;;;;;5051519;28;20059;-77
2022/06/20 10:47:36;;;;;;;4.93;1.70;;;22.30;74.30;;;;;;5044995;28;20448;-77
2022/06/20 10:50:29;;;;;;;6.40;1.88;;;22.60;73.10;;;;;;5053803;28;20048;-77
2022/06/20 10:53:06;;;;;;;6.45;1.98;;;22.70;71.90;;;;;;5060777;28;20041;-77
2022/06/20 10:56:02;;;;;;;5.43;1.90;;;22.50;72.10;;;;;;5059740;28;20413;-77
2022/06/20 10:58:37;;;;;;;5.63;1.98;;;22.40;70.80;;;;;;5055522;28;20047;-76
2022/06/20 11:01:23;;;;;;;7.82;1.83;;;22.60;72.30;;;;;;5063361;28;20101;-76
2022/06/20 11:04:25;;;;;;;4.43;1.80;;;22.90;70.10;;;;;;5046164;28;20037;-77
2022/06/20 11:07:07;;;;;;;4.45;1.60;;;23.20;69.20;;;;;;5063676;28;20041;-77
2022/06/20 11:09:42;;;;;;;4.78;1.83;;;23.50;68.20;;;;;;5058580;28;20119;-77
2022/06/20 11:12:13;;;;;;;6.38;1.90;;;23.70;69.60;;;;;;5062930;28;20099;-77
2022/06/20 11:14:49;;;;;;;8.00;2.17;;;23.90;67.80;;;;;;5059315;28;20037;-76
2022/06/20 11:17:18;;;;;;;5.18;1.85;;;23.70;66.50;;;;;;5055867;28;20052;-77
2022/06/20 11:19:48;;;;;;;4.93;2.03;;;23.50;67.30;;;;;;5059318;28;20041;-77
2022/06/20 11:22:30;;;;;;;4.35;1.70;;;23.10;66.90;;;;;;5059176;28;20559;-76
2022/06/20 11:25:17;;;;;;;4.63;1.77;;;22.80;65.20;;;;;;5063738;28;20029;-76
2022/06/20 11:28:04;;;;;;;4.60;1.80;;;22.80;66.60;;;;;;5044945;28;20120;-76
2022/06/20 11:30:41;;;;;;;4.03;2.25;;;23.10;66.90;;;;;;5038001;28;20493;-76
2022/06/20 11:36:17;;;;;;;5.75;1.83;;;23.60;66.80;;;;;;5056174;28;20045;-77
2022/06/20 11:38:43;;;;;;;7.38;2.15;;;24.00;67.30;;;;;;5054605;28;20064;-77
2022/06/20 11:41:16;;;;;;;7.07;1.98;;;24.20;66.90;;;;;;5057228;28;20045;-77
2022/06/20 11:44:12;;;;;;;7.22;2.30;;;24.40;66.40;;;;;;5047707;28;20033;-77
2022/06/20 11:46:48;;;;;;;9.48;2.22;;;24.60;65.00;;;;;;5052525;28;20041;-77
2022/06/20 11:49:26;;;;;;;5.30;1.85;;;24.70;64.40;;;;;;5052223;28;20037;-77
2022/06/20 11:52:07;;;;;;;7.05;1.83;;;24.70;64.80;;;;;;5053768;28;20059;-77
2022/06/20 11:54:48;;;;;;;6.30;2.15;;;24.80;64.40;;;;;;5043079;28;20037;-77
2022/06/20 11:57:52;;;;;;;7.07;2.25;;;24.90;63.90;;;;;;5055062;28;20044;-78
2022/06/20 12:00:30;;;;;;;5.57;2.40;;;25.00;62.00;;;;;;5056508;28;20037;-78
2022/06/20 12:03:05;;;;;;;6.70;1.88;;;24.70;62.60;;;;;;5054378;28;20033;-77
2022/06/20 12:05:36;;;;;;;4.18;1.85;;;24.40;61.80;;;;;;5049353;28;20504;-77
2022/06/20 12:08:11;;;;;;;7.63;1.75;;;24.40;62.80;;;;;;5068777;28;20045;-78
2022/06/20 12:10:42;;;;;;;5.53;2.00;;;24.40;62.10;;;;;;5058428;28;20044;-77
2022/06/20 12:13:29;;;;;;;4.90;1.83;;;24.50;62.00;;;;;;5064813;28;20040;-77
2022/06/20 12:16:02;;;;;;;6.88;2.15;;;24.60;61.50;;;;;;5047501;28;20084;-77
2022/06/20 12:18:39;;;;;;;7.03;2.13;;;24.80;61.20;;;;;;5042893;28;20045;-77
2022/06/20 12:24:06;;;;;;;7.40;1.85;;;24.80;60.20;;;;;;5059803;28;20528;-76
2022/06/20 12:26:39;;;;;;;5.13;1.70;;;24.80;61.20;;;;;;5055398;28;20419;-77
2022/06/20 12:29:14;;;;;;;6.00;1.60;;;24.80;59.50;;;;;;5061571;28;20056;-77
2022/06/20 12:31:46;;;;;;;5.75;1.73;;;24.80;59.00;;;;;;5060115;28;20051;-77
2022/06/20 12:34:23;;;;;;;4.75;1.80;;;24.80;59.70;;;;;;5054365;28;20041;-77
2022/06/20 12:36:59;;;;;;;4.22;1.75;;;24.90;58.30;;;;;;5052772;28;20060;-76
2022/06/20 12:39:37;;;;;;;7.10;2.05;;;24.90;59.20;;;;;;5044181;28;20112;-77
2022/06/20 12:42:29;;;;;;;3.92;2.00;;;24.80;58.30;;;;;;5051262;28;20052;-77
2022/06/20 12:45:03;;;;;;;4.20;1.75;;;24.90;59.10;;;;;;5020754;28;20053;-77
2022/06/20 12:47:53;;;;;;;4.30;1.80;;;24.80;58.50;;;;;;5055903;28;20082;-77
2022/06/20 12:50:31;;;;;;;5.68;1.83;;;24.80;57.00;;;;;;5059917;28;20044;-77
2022/06/20 12:53:17;;;;;;;3.78;1.60;;;24.90;57.70;;;;;;5034958;28;20107;-76
2022/06/20 12:55:57;;;;;;;4.20;1.70;;;24.70;56.00;;;;;;5063109;28;20123;-76
2022/06/20 12:58:48;;;;;;;4.53;1.67;;;24.50;56.90;;;;;;5055967;28;20119;-76
2022/06/20 13:01:19;;;;;;;3.33;1.80;;;24.40;57.20;;;;;;5061125;28;20429;-76
2022/06/20 13:04:06;;;;;;;4.28;2.00;;;24.30;57.90;;;;;;5025568;28;20045;-76
2022/06/20 13:07:05;;;;;;;3.92;1.70;;;24.20;58.40;;;;;;5061879;28;20063;-76
2022/06/20 13:09:49;;;;;;;4.47;2.00;;;24.20;59.20;;;;;;5051671;28;20033;-77
2022/06/20 13:12:29;;;;;;;3.00;1.90;;;24.20;59.70;;;;;;5067749;28;20044;-77
2022/06/20 13:15:32;;;;;;;5.22;1.92;;;24.20;59.10;;;;;;5062402;28;20043;-77
2022/06/20 13:18:25;;;;;;;3.00;1.60;;;24.00;59.10;;;;;;5063101;28;20044;-77
2022/06/20 13:21:19;;;;;;;4.93;1.80;;;24.10;59.60;;;;;;5056818;28;20045;-77
2022/06/20 13:24:03;;;;;;;3.60;1.75;;;24.30;59.40;;;;;;5059717;28;20083;-76
2022/06/20 13:26:41;;;;;;;4.15;2.05;;;24.60;59.20;;;;;;5045984;28;20032;-78
2022/06/20 13:29:40;;;;;;;5.22;1.80;;;24.60;58.40;;;;;;5060906;28;20454;-76
2022/06/20 13:32:31;;;;;;;5.70;1.98;;;24.40;57.50;;;;;;5058158;28;20045;-77
2022/06/20 13:35:25;;;;;;;5.28;1.98;;;24.20;58.40;;;;;;5066769;28;20036;-77
2022/06/20 13:38:09;;;;;;;5.72;1.70;;;24.00;57.90;;;;;;5055338;28;20132;-77
2022/06/20 13:41:06;;;;;;;3.88;1.73;;;23.80;58.70;;;;;;5058772;28;20546;-77
2022/06/20 13:43:44;;;;;;;4.65;1.90;;;23.60;59.20;;;;;;5059129;28;20450;-77
2022/06/20 13:46:22;;;;;;;4.25;2.58;;;23.50;59.70;;;;;;5049486;28;20048;-78
2022/06/20 13:48:56;;;;;;;5.53;1.90;;;23.30;60.50;;;;;;5061125;28;20048;-77
2022/06/20 13:51:34;;;;;;;3.90;2.67;;;23.10;60.70;;;;;;5042414;28;20040;-76
2022/06/20 13:54:14;;;;;;;5.78;2.70;;;23.00;61.10;;;;;;5024189;28;20468;-76